sensor_id;sensor_type;location;lat;lon;timestamp;temperature;humidity
59282;DHT22;45054;52.062;10.010;2022-08-19T00:01:22;20.10;99.90
59282;DHT22;45054;52.062;10.010;2022-08-19T00:03:48;20.00;99.90
59282;DHT22;45054;52.062;10.010;2022-08-19T00:06:14;20.00;99.90
59282;DHT22;45054;52.062;10.010;2022-08-19T00:08:39;19.90;99.90
59282;DHT22;45054;52.062;10.010;2022-08-19T00:11:05;19.90;99.90
59282;DHT22;45054;52.062;10.010;2022-08-19T00:13:31;19.90;99.90
59282;DHT22;45054;52.062;10.010;2022-08-19T00:15:56;19.90;99.90
59282;DHT22;45054;52.062;10.010;2022-08-19T00:18:23;19.90;99.90
59282;DHT22;45054;52.062;10.010;2022-08-19T00:20:49;19.90;99.90
59282;DHT22;45054;52.062;10.010;2022-08-19T00:23:14;19.90;99.90
59282;DHT22;45054;52.062;10.010;2022-08-19T00:25:40;19.90;99.90
59282;DHT22;45054;52.062;10.010;2022-08-19T00:28:05;19.90;99.90
59282;DHT22;45054;52.062;10.010;2022-08-19T00:30:30;19.90;99.90
59282;DHT22;45054;52.062;10.010;2022-08-19T00:32:56;19.80;99.90
59282;DHT22;45054;52.062;10.010;2022-08-19T00:35:23;19.80;99.90
59282;DHT22;45054;52.062;10.010;2022-08-19T00:37:49;19.80;99.90
59282;DHT22;45054;52.062;10.010;2022-08-19T00:40:15;19.80;99.90
59282;DHT22;45054;52.062;10.010;2022-08-19T00:42:42;19.70;99.90
59282;DHT22;45054;52.062;10.010;2022-08-19T00:45:10;19.80;99.90
59282;DHT22;45054;52.062;10.010;2022-08-19T00:47:36;19.80;99.90
59282;DHT22;45054;52.062;10.010;2022-08-19T00:50:01;19.70;99.90
59282;DHT22;45054;52.062;10.010;2022-08-19T00:52:29;19.70;99.90
59282;DHT22;45054;52.062;10.010;2022-08-19T00:54:55;19.70;99.90
59282;DHT22;45054;52.062;10.010;2022-08-19T00:57:22;19.60;99.90
59282;DHT22;45054;52.062;10.010;2022-08-19T00:59:48;19.50;99.90
59282;DHT22;45054;52.062;10.010;2022-08-19T01:02:16;19.50;99.90
59282;DHT22;45054;52.062;10.010;2022-08-19T01:04:41;19.50;99.90
59282;DHT22;45054;52.062;10.010;2022-08-19T01:07:07;19.50;99.90
59282;DHT22;45054;52.062;10.010;2022-08-19T01:09:34;19.50;99.90
59282;DHT22;45054;52.062;10.010;2022-08-19T01:11:59;19.50;99.90
59282;DHT22;45054;52.062;10.010;2022-08-19T01:14:25;19.50;99.90
59282;DHT22;45054;52.062;10.010;2022-08-19T01:16:50;19.50;99.90
59282;DHT22;45054;52.062;10.010;2022-08-19T01:19:18;19.40;99.90
59282;DHT22;45054;52.062;10.010;2022-08-19T01:21:47;19.40;99.90
59282;DHT22;45054;52.062;10.010;2022-08-19T01:24:17;19.30;99.90
59282;DHT22;45054;52.062;10.010;2022-08-19T01:26:43;19.30;99.90
59282;DHT22;45054;52.062;10.010;2022-08-19T01:29:10;19.30;99.90
59282;DHT22;45054;52.062;10.010;2022-08-19T01:31:35;19.30;99.90
59282;DHT22;45054;52.062;10.010;2022-08-19T01:34:01;19.20;99.90
59282;DHT22;45054;52.062;10.010;2022-08-19T01:36:28;19.20;99.90
59282;DHT22;45054;52.062;10.010;2022-08-19T01:38:54;19.20;99.90
59282;DHT22;45054;52.062;10.010;2022-08-19T01:41:21;19.20;99.90
59282;DHT22;45054;52.062;10.010;2022-08-19T01:43:46;19.20;99.90
59282;DHT22;45054;52.062;10.010;2022-08-19T01:46:12;19.20;99.90
59282;DHT22;45054;52.062;10.010;2022-08-19T01:48:39;19.20;99.90
59282;DHT22;45054;52.062;10.010;2022-08-19T01:51:05;19.10;99.90
59282;DHT22;45054;52.062;10.010;2022-08-19T01:53:31;19.10;99.90
59282;DHT22;45054;52.062;10.010;2022-08-19T01:55:56;19.10;99.90
59282;DHT22;45054;52.062;10.010;2022-08-19T01:58:24;19.10;99.90
59282;DHT22;45054;52.062;10.010;2022-08-19T02:00:50;19.10;99.90
59282;DHT22;45054;52.062;10.010;2022-08-19T02:03:16;19.10;99.90
59282;DHT22;45054;52.062;10.010;2022-08-19T02:05:42;19.10;99.90
59282;DHT22;45054;52.062;10.010;2022-08-19T02:08:08;19.10;99.90
59282;DHT22;45054;52.062;10.010;2022-08-19T02:10:37;19.00;99.90
59282;DHT22;45054;52.062;10.010;2022-08-19T02:13:03;19.00;99.90
59282;DHT22;45054;52.062;10.010;2022-08-19T02:15:30;19.00;99.90
59282;DHT22;45054;52.062;10.010;2022-08-19T02:17:55;19.00;99.90
59282;DHT22;45054;52.062;10.010;2022-08-19T02:20:21;19.00;99.90
59282;DHT22;45054;52.062;10.010;2022-08-19T02:22:46;19.00;99.90
59282;DHT22;45054;52.062;10.010;2022-08-19T02:25:12;19.00;99.90
59282;DHT22;45054;52.062;10.010;2022-08-19T02:27:38;19.00;99.90
59282;DHT22;45054;52.062;10.010;2022-08-19T02:30:04;19.00;99.90
59282;DHT22;45054;52.062;10.010;2022-08-19T02:32:32;18.90;99.90
59282;DHT22;45054;52.062;10.010;2022-08-19T02:34:57;19.00;99.90
59282;DHT22;45054;52.062;10.010;2022-08-19T02:37:22;18.90;99.90
59282;DHT22;45054;52.062;10.010;2022-08-19T02:39:48;18.90;99.90
59282;DHT22;45054;52.062;10.010;2022-08-19T02:42:13;18.90;99.90
59282;DHT22;45054;52.062;10.010;2022-08-19T02:44:39;18.80;99.90
59282;DHT22;45054;52.062;10.010;2022-08-19T02:47:04;18.80;99.90
59282;DHT22;45054;52.062;10.010;2022-08-19T02:49:32;18.70;99.90
59282;DHT22;45054;52.062;10.010;2022-08-19T02:51:57;18.70;99.90
59282;DHT22;45054;52.062;10.010;2022-08-19T02:54:22;18.70;99.90
59282;DHT22;45054;52.062;10.010;2022-08-19T02:56:48;18.70;99.90
59282;DHT22;45054;52.062;10.010;2022-08-19T02:59:13;18.70;99.90
59282;DHT22;45054;52.062;10.010;2022-08-19T03:01:39;18.70;99.90
59282;DHT22;45054;52.062;10.010;2022-08-19T03:04:05;18.70;99.90
59282;DHT22;45054;52.062;10.010;2022-08-19T03:06:35;18.70;99.90
59282;DHT22;45054;52.062;10.010;2022-08-19T03:09:01;18.70;99.90
59282;DHT22;45054;52.062;10.010;2022-08-19T03:11:27;18.60;99.90
59282;DHT22;45054;52.062;10.010;2022-08-19T03:13:53;18.50;99.90
59282;DHT22;45054;52.062;10.010;2022-08-19T03:16:19;18.60;99.90
59282;DHT22;45054;52.062;10.010;2022-08-19T03:18:45;18.50;99.90
59282;DHT22;45054;52.062;10.010;2022-08-19T03:21:14;18.50;99.90
59282;DHT22;45054;52.062;10.010;2022-08-19T03:23:41;18.60;99.90
59282;DHT22;45054;52.062;10.010;2022-08-19T03:26:07;18.60;99.90
59282;DHT22;45054;52.062;10.010;2022-08-19T03:28:32;18.70;99.90
59282;DHT22;45054;52.062;10.010;2022-08-19T03:31:00;18.70;99.90
59282;DHT22;45054;52.062;10.010;2022-08-19T03:33:26;18.70;99.90
59282;DHT22;45054;52.062;10.010;2022-08-19T03:36:05;18.70;99.90
59282;DHT22;45054;52.062;10.010;2022-08-19T03:38:31;18.70;99.90
59282;DHT22;45054;52.062;10.010;2022-08-19T03:40:58;18.70;99.90
59282;DHT22;45054;52.062;10.010;2022-08-19T03:43:27;18.70;99.90
59282;DHT22;45054;52.062;10.010;2022-08-19T03:45:59;18.70;99.90
59282;DHT22;45054;52.062;10.010;2022-08-19T03:48:25;18.70;99.90
59282;DHT22;45054;52.062;10.010;2022-08-19T03:50:50;18.70;99.90
59282;DHT22;45054;52.062;10.010;2022-08-19T03:53:15;18.60;99.90
59282;DHT22;45054;52.062;10.010;2022-08-19T03:55:41;18.60;99.90
59282;DHT22;45054;52.062;10.010;2022-08-19T03:58:08;18.60;99.90
59282;DHT22;45054;52.062;10.010;2022-08-19T04:00:33;18.60;99.90
59282;DHT22;45054;52.062;10.010;2022-08-19T04:02:59;18.60;99.90
59282;DHT22;45054;52.062;10.010;2022-08-19T04:05:25;18.60;99.90
59282;DHT22;45054;52.062;10.010;2022-08-19T04:07:51;18.60;99.90
59282;DHT22;45054;52.062;10.010;2022-08-19T04:10:19;18.50;99.90
59282;DHT22;45054;52.062;10.010;2022-08-19T04:12:44;18.50;99.90
59282;DHT22;45054;52.062;10.010;2022-08-19T04:15:11;18.60;99.90
59282;DHT22;45054;52.062;10.010;2022-08-19T04:17:37;18.60;99.90
59282;DHT22;45054;52.062;10.010;2022-08-19T04:20:02;18.60;99.90
59282;DHT22;45054;52.062;10.010;2022-08-19T04:22:28;18.50;99.90
59282;DHT22;45054;52.062;10.010;2022-08-19T04:24:53;18.40;99.90
59282;DHT22;45054;52.062;10.010;2022-08-19T04:27:19;18.50;99.90
59282;DHT22;45054;52.062;10.010;2022-08-19T04:29:44;18.50;99.90
59282;DHT22;45054;52.062;10.010;2022-08-19T04:32:11;18.50;99.90
59282;DHT22;45054;52.062;10.010;2022-08-19T04:34:37;18.50;99.90
59282;DHT22;45054;52.062;10.010;2022-08-19T04:37:05;18.50;99.90
59282;DHT22;45054;52.062;10.010;2022-08-19T04:39:30;18.40;99.90
59282;DHT22;45054;52.062;10.010;2022-08-19T04:41:56;18.40;99.90
59282;DHT22;45054;52.062;10.010;2022-08-19T04:44:21;18.40;99.90
59282;DHT22;45054;52.062;10.010;2022-08-19T04:46:47;18.30;99.90
59282;DHT22;45054;52.062;10.010;2022-08-19T04:49:14;18.40;99.90
59282;DHT22;45054;52.062;10.010;2022-08-19T04:51:40;18.30;99.90
59282;DHT22;45054;52.062;10.010;2022-08-19T04:54:06;18.40;99.90
59282;DHT22;45054;52.062;10.010;2022-08-19T04:56:31;18.40;99.90
59282;DHT22;45054;52.062;10.010;2022-08-19T04:58:57;18.40;99.90
59282;DHT22;45054;52.062;10.010;2022-08-19T05:01:23;18.40;99.90
59282;DHT22;45054;52.062;10.010;2022-08-19T05:03:49;18.30;99.90
59282;DHT22;45054;52.062;10.010;2022-08-19T05:06:16;18.30;99.90
59282;DHT22;45054;52.062;10.010;2022-08-19T05:08:42;18.40;99.90
59282;DHT22;45054;52.062;10.010;2022-08-19T05:11:09;18.30;99.90
59282;DHT22;45054;52.062;10.010;2022-08-19T05:13:35;18.30;99.90
59282;DHT22;45054;52.062;10.010;2022-08-19T05:16:00;18.30;99.90
59282;DHT22;45054;52.062;10.010;2022-08-19T05:18:26;18.30;99.90
59282;DHT22;45054;52.062;10.010;2022-08-19T05:20:51;18.30;99.90
59282;DHT22;45054;52.062;10.010;2022-08-19T05:23:18;18.40;99.90
59282;DHT22;45054;52.062;10.010;2022-08-19T05:25:43;18.40;99.90
59282;DHT22;45054;52.062;10.010;2022-08-19T05:28:09;18.40;99.90
59282;DHT22;45054;52.062;10.010;2022-08-19T05:30:34;18.40;99.90
59282;DHT22;45054;52.062;10.010;2022-08-19T05:33:00;18.40;99.90
59282;DHT22;45054;52.062;10.010;2022-08-19T05:35:25;18.40;99.90
59282;DHT22;45054;52.062;10.010;2022-08-19T05:37:50;18.40;99.90
59282;DHT22;45054;52.062;10.010;2022-08-19T05:40:17;18.30;99.90
59282;DHT22;45054;52.062;10.010;2022-08-19T05:42:44;18.40;99.90
59282;DHT22;45054;52.062;10.010;2022-08-19T05:45:10;18.40;99.90
59282;DHT22;45054;52.062;10.010;2022-08-19T05:47:35;18.40;99.90
59282;DHT22;45054;52.062;10.010;2022-08-19T05:50:01;18.40;99.90
59282;DHT22;45054;52.062;10.010;2022-08-19T05:52:27;18.40;99.90
59282;DHT22;45054;52.062;10.010;2022-08-19T05:54:53;18.40;99.90
59282;DHT22;45054;52.062;10.010;2022-08-19T05:57:20;18.40;99.90
59282;DHT22;45054;52.062;10.010;2022-08-19T05:59:45;18.40;99.90
59282;DHT22;45054;52.062;10.010;2022-08-19T06:02:11;18.50;99.90
59282;DHT22;45054;52.062;10.010;2022-08-19T06:04:36;18.50;99.90
59282;DHT22;45054;52.062;10.010;2022-08-19T06:07:02;18.50;99.90
59282;DHT22;45054;52.062;10.010;2022-08-19T06:09:27;18.60;99.90
59282;DHT22;45054;52.062;10.010;2022-08-19T06:11:53;18.60;99.90
59282;DHT22;45054;52.062;10.010;2022-08-19T06:14:22;18.50;99.90
59282;DHT22;45054;52.062;10.010;2022-08-19T06:16:48;18.50;99.90
59282;DHT22;45054;52.062;10.010;2022-08-19T06:19:15;18.50;99.90
59282;DHT22;45054;52.062;10.010;2022-08-19T06:21:41;18.50;99.90
59282;DHT22;45054;52.062;10.010;2022-08-19T06:24:08;18.60;99.90
59282;DHT22;45054;52.062;10.010;2022-08-19T06:26:35;18.60;99.90
59282;DHT22;45054;52.062;10.010;2022-08-19T06:29:01;18.60;99.90
59282;DHT22;45054;52.062;10.010;2022-08-19T06:31:28;18.60;99.90
59282;DHT22;45054;52.062;10.010;2022-08-19T06:33:54;18.70;99.90
59282;DHT22;45054;52.062;10.010;2022-08-19T06:36:20;18.70;99.90
59282;DHT22;45054;52.062;10.010;2022-08-19T06:38:46;18.70;99.90
59282;DHT22;45054;52.062;10.010;2022-08-19T06:41:11;18.70;99.90
59282;DHT22;45054;52.062;10.010;2022-08-19T06:43:36;18.60;99.90
59282;DHT22;45054;52.062;10.010;2022-08-19T06:46:02;18.60;99.90
59282;DHT22;45054;52.062;10.010;2022-08-19T06:48:29;18.50;99.90
59282;DHT22;45054;52.062;10.010;2022-08-19T06:50:54;18.60;99.90
59282;DHT22;45054;52.062;10.010;2022-08-19T06:53:20;18.60;99.90
59282;DHT22;45054;52.062;10.010;2022-08-19T06:55:45;18.50;99.90
59282;DHT22;45054;52.062;10.010;2022-08-19T06:58:11;18.60;99.90
59282;DHT22;45054;52.062;10.010;2022-08-19T07:00:36;18.60;99.90
59282;DHT22;45054;52.062;10.010;2022-08-19T07:03:02;18.60;99.90
59282;DHT22;45054;52.062;10.010;2022-08-19T07:05:29;18.50;99.90
59282;DHT22;45054;52.062;10.010;2022-08-19T07:07:54;18.50;99.90
59282;DHT22;45054;52.062;10.010;2022-08-19T07:10:20;18.60;99.90
59282;DHT22;45054;52.062;10.010;2022-08-19T07:12:45;18.60;99.90
59282;DHT22;45054;52.062;10.010;2022-08-19T07:15:11;18.60;99.90
59282;DHT22;45054;52.062;10.010;2022-08-19T07:17:37;18.60;99.90
59282;DHT22;45054;52.062;10.010;2022-08-19T07:20:03;18.60;99.90
59282;DHT22;45054;52.062;10.010;2022-08-19T07:22:30;18.60;99.90
59282;DHT22;45054;52.062;10.010;2022-08-19T07:24:55;18.60;99.90
59282;DHT22;45054;52.062;10.010;2022-08-19T07:27:21;18.60;99.90
59282;DHT22;45054;52.062;10.010;2022-08-19T07:29:46;18.60;99.90
59282;DHT22;45054;52.062;10.010;2022-08-19T07:32:12;18.60;99.90
59282;DHT22;45054;52.062;10.010;2022-08-19T07:34:37;18.60;99.90
59282;DHT22;45054;52.062;10.010;2022-08-19T07:37:03;18.70;99.90
59282;DHT22;45054;52.062;10.010;2022-08-19T07:39:30;18.80;99.90
59282;DHT22;45054;52.062;10.010;2022-08-19T07:41:56;18.80;99.90
59282;DHT22;45054;52.062;10.010;2022-08-19T07:44:22;18.90;99.90
59282;DHT22;45054;52.062;10.010;2022-08-19T07:46:54;18.90;99.90
59282;DHT22;45054;52.062;10.010;2022-08-19T07:49:20;18.90;99.90
59282;DHT22;45054;52.062;10.010;2022-08-19T07:51:45;18.90;99.90
59282;DHT22;45054;52.062;10.010;2022-08-19T07:54:11;19.00;99.90
59282;DHT22;45054;52.062;10.010;2022-08-19T07:56:38;19.00;99.90
59282;DHT22;45054;52.062;10.010;2022-08-19T07:59:03;19.00;99.90
59282;DHT22;45054;52.062;10.010;2022-08-19T08:01:29;19.00;99.90
59282;DHT22;45054;52.062;10.010;2022-08-19T08:03:55;19.20;99.90
59282;DHT22;45054;52.062;10.010;2022-08-19T08:06:21;19.20;99.90
59282;DHT22;45054;52.062;10.010;2022-08-19T08:08:47;19.30;99.90
59282;DHT22;45054;52.062;10.010;2022-08-19T08:11:12;19.30;99.90
59282;DHT22;45054;52.062;10.010;2022-08-19T08:13:39;19.30;99.90
59282;DHT22;45054;52.062;10.010;2022-08-19T08:16:05;19.40;99.90
59282;DHT22;45054;52.062;10.010;2022-08-19T08:18:30;19.40;99.90
59282;DHT22;45054;52.062;10.010;2022-08-19T08:20:56;19.40;99.90
59282;DHT22;45054;52.062;10.010;2022-08-19T08:23:21;19.40;99.90
59282;DHT22;45054;52.062;10.010;2022-08-19T08:25:47;19.40;99.90
59282;DHT22;45054;52.062;10.010;2022-08-19T08:28:13;19.40;99.90
59282;DHT22;45054;52.062;10.010;2022-08-19T08:30:40;19.40;99.90
59282;DHT22;45054;52.062;10.010;2022-08-19T08:33:05;19.50;99.90
59282;DHT22;45054;52.062;10.010;2022-08-19T08:35:31;19.60;99.90
59282;DHT22;45054;52.062;10.010;2022-08-19T08:37:56;19.60;99.90
59282;DHT22;45054;52.062;10.010;2022-08-19T08:40:23;19.60;99.90
59282;DHT22;45054;52.062;10.010;2022-08-19T08:42:51;19.70;99.90
59282;DHT22;45054;52.062;10.010;2022-08-19T08:45:20;19.80;99.90
59282;DHT22;45054;52.062;10.010;2022-08-19T08:47:48;19.70;99.90
59282;DHT22;45054;52.062;10.010;2022-08-19T08:50:16;19.70;99.90
59282;DHT22;45054;52.062;10.010;2022-08-19T08:52:44;19.80;99.90
59282;DHT22;45054;52.062;10.010;2022-08-19T08:55:11;19.90;99.90
59282;DHT22;45054;52.062;10.010;2022-08-19T08:57:38;20.00;99.90
59282;DHT22;45054;52.062;10.010;2022-08-19T09:00:05;20.10;99.90
59282;DHT22;45054;52.062;10.010;2022-08-19T09:02:31;20.20;99.90
59282;DHT22;45054;52.062;10.010;2022-08-19T09:04:58;20.20;99.90
59282;DHT22;45054;52.062;10.010;2022-08-19T09:07:26;20.10;99.90
59282;DHT22;45054;52.062;10.010;2022-08-19T09:09:54;20.00;99.90
59282;DHT22;45054;52.062;10.010;2022-08-19T09:12:23;20.00;99.90
59282;DHT22;45054;52.062;10.010;2022-08-19T09:14:52;20.10;99.90
59282;DHT22;45054;52.062;10.010;2022-08-19T09:17:19;20.10;99.90
59282;DHT22;45054;52.062;10.010;2022-08-19T09:19:52;20.30;99.90
59282;DHT22;45054;52.062;10.010;2022-08-19T09:22:19;20.40;99.90
59282;DHT22;45054;52.062;10.010;2022-08-19T09:24:44;20.50;99.90
59282;DHT22;45054;52.062;10.010;2022-08-19T09:27:10;20.60;99.90
59282;DHT22;45054;52.062;10.010;2022-08-19T09:29:35;20.70;99.90
59282;DHT22;45054;52.062;10.010;2022-08-19T09:32:01;20.80;99.90
59282;DHT22;45054;52.062;10.010;2022-08-19T09:34:26;20.90;99.90
59282;DHT22;45054;52.062;10.010;2022-08-19T09:36:52;21.00;99.90
59282;DHT22;45054;52.062;10.010;2022-08-19T09:39:18;21.10;99.90
59282;DHT22;45054;52.062;10.010;2022-08-19T09:41:44;21.10;99.90
59282;DHT22;45054;52.062;10.010;2022-08-19T09:44:09;21.10;99.90
59282;DHT22;45054;52.062;10.010;2022-08-19T09:46:35;21.20;99.90
59282;DHT22;45054;52.062;10.010;2022-08-19T09:49:00;21.30;99.90
59282;DHT22;45054;52.062;10.010;2022-08-19T09:51:26;21.30;99.90
59282;DHT22;45054;52.062;10.010;2022-08-19T09:53:52;21.50;99.90
59282;DHT22;45054;52.062;10.010;2022-08-19T09:56:19;21.50;99.90
59282;DHT22;45054;52.062;10.010;2022-08-19T09:58:45;21.50;99.90
59282;DHT22;45054;52.062;10.010;2022-08-19T10:01:15;21.50;99.90
59282;DHT22;45054;52.062;10.010;2022-08-19T10:03:40;21.50;99.90
59282;DHT22;45054;52.062;10.010;2022-08-19T10:06:06;21.50;99.90
59282;DHT22;45054;52.062;10.010;2022-08-19T10:08:32;21.50;99.90
59282;DHT22;45054;52.062;10.010;2022-08-19T10:10:58;21.60;99.90
59282;DHT22;45054;52.062;10.010;2022-08-19T10:13:26;21.80;99.90
59282;DHT22;45054;52.062;10.010;2022-08-19T10:15:53;21.90;99.90
59282;DHT22;45054;52.062;10.010;2022-08-19T10:18:19;22.00;99.90
59282;DHT22;45054;52.062;10.010;2022-08-19T10:20:45;22.00;99.90
59282;DHT22;45054;52.062;10.010;2022-08-19T10:23:10;22.10;99.90
59282;DHT22;45054;52.062;10.010;2022-08-19T10:25:36;22.10;99.90
59282;DHT22;45054;52.062;10.010;2022-08-19T10:28:01;22.20;99.90
59282;DHT22;45054;52.062;10.010;2022-08-19T10:30:29;22.10;99.90
59282;DHT22;45054;52.062;10.010;2022-08-19T10:32:55;22.10;99.90
59282;DHT22;45054;52.062;10.010;2022-08-19T10:35:20;22.10;99.90
59282;DHT22;45054;52.062;10.010;2022-08-19T10:37:45;22.10;99.90
59282;DHT22;45054;52.062;10.010;2022-08-19T10:40:11;22.20;99.90
59282;DHT22;45054;52.062;10.010;2022-08-19T10:42:37;22.20;99.90
59282;DHT22;45054;52.062;10.010;2022-08-19T10:45:02;22.40;99.90
59282;DHT22;45054;52.062;10.010;2022-08-19T10:47:29;22.60;99.90
59282;DHT22;45054;52.062;10.010;2022-08-19T10:49:55;22.60;99.90
59282;DHT22;45054;52.062;10.010;2022-08-19T10:52:20;22.70;99.90
59282;DHT22;45054;52.062;10.010;2022-08-19T10:54:46;22.70;99.90
59282;DHT22;45054;52.062;10.010;2022-08-19T10:57:11;22.80;99.90
59282;DHT22;45054;52.062;10.010;2022-08-19T10:59:37;23.00;99.90
59282;DHT22;45054;52.062;10.010;2022-08-19T11:02:03;23.00;99.90
59282;DHT22;45054;52.062;10.010;2022-08-19T11:04:30;23.00;99.90
59282;DHT22;45054;52.062;10.010;2022-08-19T11:06:56;23.00;99.90
59282;DHT22;45054;52.062;10.010;2022-08-19T11:09:22;23.00;99.90
59282;DHT22;45054;52.062;10.010;2022-08-19T11:11:47;23.10;99.90
59282;DHT22;45054;52.062;10.010;2022-08-19T11:14:14;23.20;99.90
59282;DHT22;45054;52.062;10.010;2022-08-19T11:16:40;23.30;99.90
59282;DHT22;45054;52.062;10.010;2022-08-19T11:19:06;23.30;99.90
59282;DHT22;45054;52.062;10.010;2022-08-19T11:21:33;23.40;99.90
59282;DHT22;45054;52.062;10.010;2022-08-19T11:23:59;23.40;99.90
59282;DHT22;45054;52.062;10.010;2022-08-19T11:26:25;23.50;99.90
59282;DHT22;45054;52.062;10.010;2022-08-19T11:28:51;23.60;99.90
59282;DHT22;45054;52.062;10.010;2022-08-19T11:31:17;23.70;99.90
59282;DHT22;45054;52.062;10.010;2022-08-19T11:33:43;23.70;99.90
59282;DHT22;45054;52.062;10.010;2022-08-19T11:36:10;23.80;99.90
59282;DHT22;45054;52.062;10.010;2022-08-19T11:38:37;23.90;99.90
59282;DHT22;45054;52.062;10.010;2022-08-19T11:41:03;24.00;99.90
59282;DHT22;45054;52.062;10.010;2022-08-19T11:43:29;24.20;99.90
59282;DHT22;45054;52.062;10.010;2022-08-19T11:45:55;24.20;99.90
59282;DHT22;45054;52.062;10.010;2022-08-19T11:48:21;24.20;99.90
59282;DHT22;45054;52.062;10.010;2022-08-19T11:50:47;24.20;99.90
59282;DHT22;45054;52.062;10.010;2022-08-19T11:53:12;24.30;99.90
59282;DHT22;45054;52.062;10.010;2022-08-19T11:55:39;24.40;99.90
59282;DHT22;45054;52.062;10.010;2022-08-19T11:58:05;24.50;99.90
59282;DHT22;45054;52.062;10.010;2022-08-19T12:00:30;24.40;99.90
59282;DHT22;45054;52.062;10.010;2022-08-19T12:02:55;24.40;99.90
59282;DHT22;45054;52.062;10.010;2022-08-19T12:05:21;24.40;99.90
59282;DHT22;45054;52.062;10.010;2022-08-19T12:07:46;24.40;99.90
59282;DHT22;45054;52.062;10.010;2022-08-19T12:10:12;24.50;99.90
59282;DHT22;45054;52.062;10.010;2022-08-19T12:12:39;24.60;99.90
59282;DHT22;45054;52.062;10.010;2022-08-19T12:15:04;24.70;99.90
59282;DHT22;45054;52.062;10.010;2022-08-19T12:17:30;24.70;99.90
59282;DHT22;45054;52.062;10.010;2022-08-19T12:19:55;24.70;99.90
59282;DHT22;45054;52.062;10.010;2022-08-19T12:22:21;24.80;99.90
59282;DHT22;45054;52.062;10.010;2022-08-19T12:24:46;25.00;99.90
59282;DHT22;45054;52.062;10.010;2022-08-19T12:27:12;25.00;99.90
59282;DHT22;45054;52.062;10.010;2022-08-19T12:29:39;25.00;99.90
59282;DHT22;45054;52.062;10.010;2022-08-19T12:32:04;24.90;99.90
59282;DHT22;45054;52.062;10.010;2022-08-19T12:34:30;24.90;99.90
59282;DHT22;45054;52.062;10.010;2022-08-19T12:36:56;24.90;99.90
59282;DHT22;45054;52.062;10.010;2022-08-19T12:39:22;25.00;99.90
59282;DHT22;45054;52.062;10.010;2022-08-19T12:41:48;25.10;99.90
59282;DHT22;45054;52.062;10.010;2022-08-19T12:44:13;25.20;99.90
59282;DHT22;45054;52.062;10.010;2022-08-19T12:46:40;25.10;99.90
59282;DHT22;45054;52.062;10.010;2022-08-19T12:49:06;25.20;99.90
59282;DHT22;45054;52.062;10.010;2022-08-19T12:51:31;25.30;99.90
59282;DHT22;45054;52.062;10.010;2022-08-19T12:53:57;25.40;99.90
59282;DHT22;45054;52.062;10.010;2022-08-19T12:56:22;25.50;99.90
59282;DHT22;45054;52.062;10.010;2022-08-19T12:58:47;25.60;99.90
59282;DHT22;45054;52.062;10.010;2022-08-19T13:01:14;25.50;99.90
59282;DHT22;45054;52.062;10.010;2022-08-19T13:03:41;25.60;99.90
59282;DHT22;45054;52.062;10.010;2022-08-19T13:06:07;25.70;99.90
59282;DHT22;45054;52.062;10.010;2022-08-19T13:08:33;25.90;99.90
59282;DHT22;45054;52.062;10.010;2022-08-19T13:11:05;25.90;99.90
59282;DHT22;45054;52.062;10.010;2022-08-19T13:13:31;25.80;99.90
59282;DHT22;45054;52.062;10.010;2022-08-19T13:15:59;25.70;99.90
59282;DHT22;45054;52.062;10.010;2022-08-19T13:18:25;25.70;99.90
59282;DHT22;45054;52.062;10.010;2022-08-19T13:20:52;25.80;99.90
59282;DHT22;45054;52.062;10.010;2022-08-19T13:23:17;25.80;99.90
59282;DHT22;45054;52.062;10.010;2022-08-19T13:25:42;25.80;99.90
59282;DHT22;45054;52.062;10.010;2022-08-19T13:28:08;26.00;99.90
59282;DHT22;45054;52.062;10.010;2022-08-19T13:30:33;26.00;99.90
59282;DHT22;45054;52.062;10.010;2022-08-19T13:32:59;26.10;99.90
59282;DHT22;45054;52.062;10.010;2022-08-19T13:35:25;26.10;99.90
59282;DHT22;45054;52.062;10.010;2022-08-19T13:37:51;26.30;99.90
59282;DHT22;45054;52.062;10.010;2022-08-19T13:40:18;26.30;99.90
59282;DHT22;45054;52.062;10.010;2022-08-19T13:42:44;26.30;99.90
59282;DHT22;45054;52.062;10.010;2022-08-19T13:45:10;26.40;99.90
59282;DHT22;45054;52.062;10.010;2022-08-19T13:47:35;26.60;99.90
59282;DHT22;45054;52.062;10.010;2022-08-19T13:50:02;26.80;99.90
59282;DHT22;45054;52.062;10.010;2022-08-19T13:52:27;26.90;99.90
59282;DHT22;45054;52.062;10.010;2022-08-19T13:54:54;27.00;99.90
59282;DHT22;45054;52.062;10.010;2022-08-19T13:57:20;27.10;99.70
59282;DHT22;45054;52.062;10.010;2022-08-19T13:59:45;26.90;99.40
59282;DHT22;45054;52.062;10.010;2022-08-19T14:02:11;26.90;99.70
59282;DHT22;45054;52.062;10.010;2022-08-19T14:04:36;27.00;99.90
59282;DHT22;45054;52.062;10.010;2022-08-19T14:07:02;27.00;99.90
59282;DHT22;45054;52.062;10.010;2022-08-19T14:09:27;27.00;99.00
59282;DHT22;45054;52.062;10.010;2022-08-19T14:11:54;27.00;99.80
59282;DHT22;45054;52.062;10.010;2022-08-19T14:14:19;27.00;99.50
59282;DHT22;45054;52.062;10.010;2022-08-19T14:16:45;27.20;99.90
59282;DHT22;45054;52.062;10.010;2022-08-19T14:19:10;27.30;99.90
59282;DHT22;45054;52.062;10.010;2022-08-19T14:21:36;27.50;99.50
59282;DHT22;45054;52.062;10.010;2022-08-19T14:24:01;27.40;99.20
59282;DHT22;45054;52.062;10.010;2022-08-19T14:26:27;27.50;99.20
59282;DHT22;45054;52.062;10.010;2022-08-19T14:28:53;27.50;99.00
59282;DHT22;45054;52.062;10.010;2022-08-19T14:31:19;27.60;98.90
59282;DHT22;45054;52.062;10.010;2022-08-19T14:33:45;27.80;99.00
59282;DHT22;45054;52.062;10.010;2022-08-19T14:36:11;28.00;98.80
59282;DHT22;45054;52.062;10.010;2022-08-19T14:38:37;28.30;98.30
59282;DHT22;45054;52.062;10.010;2022-08-19T14:41:09;28.50;97.90
59282;DHT22;45054;52.062;10.010;2022-08-19T14:43:35;28.70;97.30
59282;DHT22;45054;52.062;10.010;2022-08-19T14:46:02;29.10;97.00
59282;DHT22;45054;52.062;10.010;2022-08-19T14:48:27;29.70;96.10
59282;DHT22;45054;52.062;10.010;2022-08-19T14:50:53;30.80;95.50
59282;DHT22;45054;52.062;10.010;2022-08-19T14:53:18;31.90;93.20
59282;DHT22;45054;52.062;10.010;2022-08-19T14:55:44;32.50;93.50
59282;DHT22;45054;52.062;10.010;2022-08-19T14:58:10;33.60;90.30
59282;DHT22;45054;52.062;10.010;2022-08-19T15:00:35;34.40;87.90
59282;DHT22;45054;52.062;10.010;2022-08-19T15:03:02;35.30;86.10
59282;DHT22;45054;52.062;10.010;2022-08-19T15:05:28;36.30;80.60
59282;DHT22;45054;52.062;10.010;2022-08-19T15:07:53;36.70;79.00